Time;durP1;ratioP1;P1;durP2;ratioP2;P2;SDS_P1;SDS_P2;PMS_P1;PMS_P2;Temp;Humidity;BMP_temperature;BMP_pressure;BME280_temperature;BME280_humidity;BME280_pressure;Samples;Min_cycle;Max_cycle;Signal;HPM_P1;HPM_P2
2022/10/28 00:02:22;;;;;;;49.65;25.85;;;;;;;5.27;100.00;99268.91;1729818;82;20946;-79
2022/10/28 00:04:48;;;;;;;48.60;27.32;;;;;;;5.33;100.00;99274.78;1729318;82;21583;-79
2022/10/28 00:07:14;;;;;;;46.80;24.67;;;;;;;5.38;100.00;99273.62;1730320;82;20932;-81
2022/10/28 00:09:40;;;;;;;52.25;26.05;;;;;;;5.43;100.00;99266.23;1734493;81;21662;-80
2022/10/28 00:12:06;;;;;;;50.12;26.07;;;;;;;5.46;100.00;99264.45;1707131;82;21121;-81
2022/10/28 00:14:32;;;;;;;45.85;26.27;;;;;;;5.51;100.00;99267.84;1717370;82;21087;-79
2022/10/28 00:16:58;;;;;;;51.63;27.32;;;;;;;5.49;100.00;99268.07;1715711;82;20998;-82
2022/10/28 00:19:24;;;;;;;40.95;24.18;;;;;;;5.47;100.00;99271.99;1714066;81;20858;-79
2022/10/28 00:21:50;;;;;;;46.42;24.55;;;;;;;5.37;100.00;99269.78;1729405;81;21057;-80
2022/10/28 00:24:15;;;;;;;42.88;23.90;;;;;;;5.32;100.00;99270.97;1729808;82;21148;-81
2022/10/28 00:26:42;;;;;;;44.00;24.10;;;;;;;5.30;100.00;99270.36;1707352;82;20971;-80
2022/10/28 00:29:15;;;;;;;43.60;23.38;;;;;;;5.28;100.00;99271.89;1705522;83;20998;-81
2022/10/28 00:31:41;;;;;;;45.12;22.58;;;;;;;5.28;100.00;99273.24;1706433;84;21100;-79
2022/10/28 00:34:11;;;;;;;41.92;23.27;;;;;;;5.25;100.00;99268.83;1706353;83;21006;-81
2022/10/28 00:36:39;;;;;;;38.78;21.57;;;;;;;5.20;100.00;99257.88;1705851;82;21504;-79
2022/10/28 00:39:10;;;;;;;39.20;21.25;;;;;;;5.18;100.00;99259.97;1705570;83;21116;-79
2022/10/28 00:41:38;;;;;;;40.55;20.43;;;;;;;5.13;100.00;99253.91;1705634;83;21096;-81
2022/10/28 00:44:43;;;;;;;42.23;20.37;;;;;;;5.07;100.00;99247.52;1705437;83;21041;-79
2022/10/28 00:47:20;;;;;;;34.70;21.90;;;;;;;5.08;100.00;99242.97;1705893;83;21080;-81
2022/10/28 00:49:46;;;;;;;39.50;20.88;;;;;;;5.05;100.00;99238.04;1705924;83;21303;-81
2022/10/28 00:52:18;;;;;;;35.63;18.82;;;;;;;4.98;100.00;99230.00;1706447;83;21066;-80
2022/10/28 00:54:44;;;;;;;28.15;17.40;;;;;;;4.97;100.00;99232.39;1706100;83;21073;-81
2022/10/28 00:57:14;;;;;;;36.98;19.50;;;;;;;4.94;100.00;99222.57;1705678;84;21457;-79
2022/10/28 00:59:43;;;;;;;38.10;19.27;;;;;;;4.94;100.00;99230.63;1705358;84;21006;-80
2022/10/28 01:02:09;;;;;;;;;;;;;;;4.92;100.00;99225.48;1709036;84;21128;-81
2022/10/28 01:04:34;;;;;;;31.82;16.93;;;;;;;4.89;100.00;99227.26;1706355;84;20245;-81
2022/10/28 01:07:00;;;;;;;38.33;19.37;;;;;;;4.84;100.00;99229.75;1705883;84;21436;-80
2022/10/28 01:09:26;;;;;;;41.08;20.00;;;;;;;4.80;100.00;99228.02;1704617;83;20993;-79
2022/10/28 01:12:09;;;;;;;33.15;16.65;;;;;;;4.78;100.00;99231.41;1704871;84;21575;-81
2022/10/28 01:14:50;;;;;;;33.35;18.30;;;;;;;4.78;100.00;99228.72;1704561;83;21163;-79
2022/10/28 01:17:49;;;;;;;41.00;18.75;;;;;;;4.75;100.00;99229.16;1703682;83;21044;-79
2022/10/28 01:20:50;;;;;;;35.10;18.85;;;;;;;4.73;100.00;99226.39;1704241;83;20993;-79
2022/10/28 01:23:28;;;;;;;32.23;16.80;;;;;;;4.68;100.00;99229.70;1704766;84;21687;-80
2022/10/28 01:26:08;;;;;;;31.62;16.60;;;;;;;4.66;100.00;99221.56;1705090;84;21056;-81
2022/10/28 01:29:07;;;;;;;31.55;15.20;;;;;;;4.66;100.00;99218.88;1704429;84;21356;-79
2022/10/28 01:31:44;;;;;;;;;;;;;;;4.68;100.00;99209.56;1707683;84;21140;-80
2022/10/28 01:34:28;;;;;;;30.70;15.53;;;;;;;4.70;100.00;99210.69;1704527;84;20167;-81
2022/10/28 01:37:12;;;;;;;30.25;16.07;;;;;;;4.66;100.00;99202.25;1704377;83;21037;-80
2022/10/28 01:39:55;;;;;;;35.28;18.67;;;;;;;4.63;100.00;99196.48;1704497;84;20954;-79
2022/10/28 01:42:31;;;;;;;33.88;16.97;;;;;;;4.62;100.00;99194.84;1703021;84;21236;-81
2022/10/28 01:45:26;;;;;;;34.10;16.15;;;;;;;4.58;100.00;99191.74;1726766;82;21393;-80
2022/10/28 01:47:57;;;;;;;31.35;16.48;;;;;;;4.60;100.00;99192.87;1729558;82;21025;-79
2022/10/28 01:50:31;;;;;;;35.52;14.70;;;;;;;4.59;100.00;99193.91;1706515;81;21100;-80
2022/10/28 01:53:01;;;;;;;33.85;14.83;;;;;;;4.61;100.00;99186.45;1694366;84;21061;-79
2022/10/28 01:55:32;;;;;;;36.68;15.35;;;;;;;4.58;100.00;99189.58;1729365;82;21127;-80
2022/10/28 01:57:58;;;;;;;27.25;15.40;;;;;;;4.53;100.00;99186.20;1697075;82;21917;-80
2022/10/28 02:00:25;;;;;;;26.42;14.13;;;;;;;4.47;100.00;99178.47;1710173;82;21093;-79
2022/10/28 02:02:51;;;;;;;25.05;14.65;;;;;;;4.48;100.00;99181.98;1706344;84;21084;-80
2022/10/28 02:05:44;;;;;;;25.15;13.95;;;;;;;4.45;100.00;99179.73;1706229;84;20973;-80
2022/10/28 02:08:41;;;;;;;24.40;13.65;;;;;;;4.44;100.00;99179.39;1704922;83;21863;-79
2022/10/28 02:11:22;;;;;;;27.95;16.57;;;;;;;4.41;100.00;99176.63;1704866;84;21488;-80
2022/10/28 02:14:12;;;;;;;29.18;15.60;;;;;;;4.36;100.00;99175.60;1704695;84;21012;-80
2022/10/28 02:16:57;;;;;;;26.23;15.43;;;;;;;4.35;100.00;99172.09;1705681;83;21489;-80
2022/10/28 02:19:55;;;;;;;26.10;14.73;;;;;;;4.34;100.00;99171.80;1705726;83;21526;-79
2022/10/28 02:22:54;;;;;;;21.52;13.65;;;;;;;4.29;100.00;99167.59;1706184;83;21379;-79
2022/10/28 02:25:27;;;;;;;23.77;14.00;;;;;;;4.25;100.00;99166.35;1706205;84;21025;-80
2022/10/28 02:28:09;;;;;;;28.42;15.05;;;;;;;4.24;100.00;99167.39;1705768;83;20982;-79
2022/10/28 02:30:40;;;;;;;23.35;12.58;;;;;;;4.22;100.00;99164.10;1706597;84;21096;-79
2022/10/28 02:33:10;;;;;;;21.75;12.45;;;;;;;4.22;100.00;99162.24;1706133;84;21009;-79
2022/10/28 02:35:44;;;;;;;19.20;11.97;;;;;;;4.19;100.00;99157.31;1706512;83;21113;-80
2022/10/28 02:38:13;;;;;;;16.45;11.43;;;;;;;4.19;100.00;99158.65;1706183;83;21034;-81
2022/10/28 02:40:39;;;;;;;21.37;11.53;;;;;;;4.17;100.00;99150.48;1693831;84;21497;-79
2022/10/28 02:43:07;;;;;;;22.87;12.90;;;;;;;4.16;100.00;99144.81;1703177;83;22091;-80
2022/10/28 02:45:37;;;;;;;25.20;13.72;;;;;;;4.13;100.00;99147.93;1706349;84;21052;-79
2022/10/28 02:48:09;;;;;;;25.43;13.88;;;;;;;4.11;100.00;99145.98;1706124;84;21108;-79
2022/10/28 02:50:41;;;;;;;22.50;13.98;;;;;;;4.11;100.00;99137.94;1705994;84;37421;-80
2022/10/28 02:53:18;;;;;;;25.15;14.28;;;;;;;4.09;100.00;99143.48;1706427;84;21009;-81
2022/10/28 02:55:44;;;;;;;21.85;12.35;;;;;;;4.10;100.00;99143.82;1706341;84;21050;-81
2022/10/28 02:58:10;;;;;;;22.13;14.10;;;;;;;4.11;100.00;99147.33;1705842;84;21613;-80
2022/10/28 03:00:36;;;;;;;23.42;14.87;;;;;;;4.08;100.00;99147.20;1706371;84;21036;-79
2022/10/28 03:03:02;;;;;;;21.55;13.98;;;;;;;4.10;100.00;99142.97;1706090;84;20942;-79
2022/10/28 03:05:28;;;;;;;22.70;14.60;;;;;;;4.13;100.00;99143.39;1706507;83;20998;-80
2022/10/28 03:07:54;;;;;;;25.97;15.25;;;;;;;4.16;100.00;99133.56;1704259;84;20929;-80
2022/10/28 03:10:20;;;;;;;21.82;14.87;;;;;;;4.20;100.00;99133.98;1702391;84;20873;-80
2022/10/28 03:12:46;;;;;;;23.02;14.60;;;;;;;4.23;100.00;99133.03;1702810;83;21761;-79
2022/10/28 03:15:12;;;;;;;24.87;14.03;;;;;;;4.27;100.00;99131.25;1702696;84;20921;-81
2022/10/28 03:17:39;;;;;;;24.10;14.30;;;;;;;4.29;100.00;99135.39;1711999;83;20858;-81
2022/10/28 03:20:06;;;;;;;26.77;15.28;;;;;;;4.31;100.00;99117.73;1690844;83;21020;-80
2022/10/28 03:22:32;;;;;;;23.92;14.53;;;;;;;4.33;100.00;99133.92;1711807;83;21560;-80
2022/10/28 03:24:57;;;;;;;39.05;21.15;;;;;;;4.27;100.00;99140.64;1709632;83;21256;-80
2022/10/28 03:27:23;;;;;;;24.02;13.78;;;;;;;4.23;100.00;99142.94;1712279;81;20921;-80
2022/10/28 03:29:49;;;;;;;22.40;12.00;;;;;;;4.24;100.00;99144.06;1712777;82;20945;-79
2022/10/28 03:32:15;;;;;;;22.58;12.80;;;;;;;4.19;100.00;99139.87;1713099;82;20952;-80
2022/10/28 03:34:41;;;;;;;20.23;12.80;;;;;;;4.12;100.00;99139.06;1714298;82;20922;-80
2022/10/28 03:37:07;;;;;;;19.75;13.15;;;;;;;4.11;100.00;99135.25;1709332;83;21188;-80
2022/10/28 03:39:33;;;;;;;23.07;14.03;;;;;;;4.05;100.00;99136.91;1712514;82;20957;-80
2022/10/28 03:41:59;;;;;;;23.70;13.70;;;;;;;4.00;100.00;99135.88;1706232;82;20898;-79
2022/10/28 03:44:25;;;;;;;20.25;13.75;;;;;;;3.95;100.00;99141.37;1688020;84;20936;-80
2022/10/28 03:46:51;;;;;;;24.50;13.80;;;;;;;4.00;100.00;99138.56;1677734;85;20936;-79
2022/10/28 03:49:16;;;;;;;21.40;14.33;;;;;;;4.03;100.00;99138.98;1677361;85;21826;-81
2022/10/28 03:51:42;;;;;;;29.75;14.55;;;;;;;4.10;100.00;99140.28;1678310;85;20880;-80
2022/10/28 03:54:08;;;;;;;21.30;11.88;;;;;;;4.14;100.00;99137.50;1677797;85;20923;-81
2022/10/28 03:56:34;;;;;;;23.05;14.15;;;;;;;4.11;100.00;99131.23;1677692;85;20896;-81
2022/10/28 03:59:00;;;;;;;30.15;14.78;;;;;;;4.06;100.00;99130.50;1677451;85;21046;-81
2022/10/28 04:01:26;;;;;;;26.30;13.85;;;;;;;4.02;100.00;99128.47;1678032;85;21136;-79
2022/10/28 04:03:52;;;;;;;20.95;13.40;;;;;;;3.96;100.00;99127.44;1677582;85;20923;-80
2022/10/28 04:06:18;;;;;;;22.02;13.98;;;;;;;3.90;100.00;99122.39;1677635;85;20987;-79
2022/10/28 04:08:43;;;;;;;22.95;12.78;;;;;;;3.86;100.00;99123.03;1698085;84;21468;-80
2022/10/28 04:11:09;;;;;;;22.70;12.85;;;;;;;3.82;100.00;99131.17;1702679;84;20913;-79
2022/10/28 04:13:35;;;;;;;24.72;14.07;;;;;;;3.88;100.00;99124.98;1702965;84;20930;-80
2022/10/28 04:16:01;;;;;;;22.30;12.30;;;;;;;3.91;100.00;99124.55;1702452;84;21159;-80
2022/10/28 04:18:27;;;;;;;23.30;13.48;;;;;;;3.96;100.00;99117.53;1711353;83;21458;-80
2022/10/28 04:20:53;;;;;;;19.32;13.13;;;;;;;3.99;100.00;99119.48;1709906;83;21575;-81
2022/10/28 04:23:19;;;;;;;25.05;14.43;;;;;;;3.95;100.00;99120.44;1714237;82;20909;-80
2022/10/28 04:25:45;;;;;;;20.97;13.08;;;;;;;3.88;100.00;99112.40;1713928;82;20972;-80
2022/10/28 04:28:11;;;;;;;22.45;14.33;;;;;;;3.88;100.00;99113.73;1712996;82;21059;-80
2022/10/28 04:30:37;;;;;;;24.45;13.13;;;;;;;3.91;100.00;99109.80;1702032;84;20866;-79
2022/10/28 04:33:03;;;;;;;23.92;14.73;;;;;;;3.88;100.00;99102.19;1710030;83;20890;-79
2022/10/28 04:35:28;;;;;;;24.20;13.22;;;;;;;3.89;100.00;99106.00;1712730;82;20877;-79
2022/10/28 04:37:54;;;;;;;32.73;15.15;;;;;;;3.89;100.00;99107.34;1720439;82;21026;-79
2022/10/28 04:40:20;;;;;;;25.85;15.35;;;;;;;3.88;100.00;99105.69;1720524;82;20877;-80
2022/10/28 04:42:46;;;;;;;31.97;17.77;;;;;;;3.81;100.00;99105.40;1707097;82;20905;-79
2022/10/28 04:45:12;;;;;;;32.15;18.10;;;;;;;3.72;100.00;99107.48;1719385;82;20961;-80
2022/10/28 04:47:38;;;;;;;36.50;19.57;;;;;;;3.60;100.00;99097.09;1724389;81;20974;-80
2022/10/28 04:50:05;;;;;;;41.68;20.48;;;;;;;3.64;100.00;99109.86;1727615;82;21074;-79
2022/10/28 04:52:31;;;;;;;37.08;20.17;;;;;;;3.59;100.00;99111.02;1726707;82;21531;-80
2022/10/28 04:54:57;;;;;;;35.35;18.80;;;;;;;3.61;100.00;99106.27;1726735;82;20901;-79
2022/10/28 04:57:22;;;;;;;27.25;15.95;;;;;;;3.61;100.00;99102.24;1726843;82;20921;-80
2022/10/28 04:59:48;;;;;;;24.57;14.35;;;;;;;3.66;100.00;99104.28;1692327;82;20891;-79
2022/10/28 05:02:14;;;;;;;22.42;13.30;;;;;;;3.74;100.00;99097.36;1716671;81;21109;-80
2022/10/28 05:04:40;;;;;;;27.13;13.35;;;;;;;3.78;100.00;99088.41;1719809;82;20962;-79
2022/10/28 05:07:06;;;;;;;24.35;14.30;;;;;;;3.87;100.00;99082.59;1715252;82;20917;-79
2022/10/28 05:09:32;;;;;;;26.15;15.25;;;;;;;3.98;100.00;99089.68;1693150;83;21101;-79
2022/10/28 05:11:58;;;;;;;29.70;14.73;;;;;;;3.98;100.00;99096.38;1706122;84;21044;-80
2022/10/28 05:14:25;;;;;;;22.25;13.48;;;;;;;3.97;100.00;99096.91;1705933;82;21143;-80
2022/10/28 05:16:50;;;;;;;33.75;15.45;;;;;;;3.96;100.00;99093.92;1692539;83;21457;-79
2022/10/28 05:19:16;;;;;;;23.85;14.50;;;;;;;3.94;100.00;99089.29;1702987;82;20875;-81
2022/10/28 05:21:42;;;;;;;35.70;16.42;;;;;;;3.95;100.00;99101.14;1719854;81;20859;-79
2022/10/28 05:24:08;;;;;;;35.13;14.58;;;;;;;3.91;100.00;99095.05;1720480;82;20958;-79
2022/10/28 05:26:34;;;;;;;33.85;17.60;;;;;;;3.79;100.00;99080.14;1712964;82;21490;-79
2022/10/28 05:29:00;;;;;;;29.95;15.90;;;;;;;3.80;100.00;99098.39;1703496;82;21580;-79
2022/10/28 05:31:26;;;;;;;33.00;15.75;;;;;;;3.77;100.00;99097.48;1689856;82;21025;-81
2022/10/28 05:33:52;;;;;;;30.52;16.45;;;;;;;3.73;100.00;99095.72;1689287;82;20929;-80
2022/10/28 05:36:18;;;;;;;24.85;13.90;;;;;;;3.73;100.00;99097.58;1708198;82;20855;-79
2022/10/28 05:38:44;;;;;;;20.77;14.90;;;;;;;3.73;100.00;99102.94;1715400;81;21733;-79
2022/10/28 05:41:10;;;;;;;19.30;12.05;;;;;;;3.74;100.00;99094.68;1715366;82;20855;-81
2022/10/28 05:43:36;;;;;;;26.20;12.28;;;;;;;3.75;100.00;99088.28;1714660;81;21124;-80
2022/10/28 05:46:03;;;;;;;28.00;14.60;;;;;;;3.81;100.00;99090.66;1710504;82;21476;-79
2022/10/28 05:48:29;;;;;;;25.55;14.60;;;;;;;3.86;100.00;99094.87;1710309;82;21092;-79
2022/10/28 05:50:55;;;;;;;25.45;15.88;;;;;;;3.94;100.00;99099.50;1668607;85;21155;-80
2022/10/28 05:53:21;;;;;;;23.67;13.13;;;;;;;3.95;100.00;99103.82;1714847;82;20915;-81
2022/10/28 05:55:47;;;;;;;36.68;15.50;;;;;;;3.94;100.00;99106.72;1696742;82;20983;-80
2022/10/28 05:58:13;;;;;;;30.17;14.47;;;;;;;3.93;100.00;99110.41;1688988;84;21020;-80
2022/10/28 06:00:39;;;;;;;23.60;14.00;;;;;;;3.94;100.00;99104.86;1690875;84;20993;-81
2022/10/28 06:03:09;;;;;;;25.20;13.98;;;;;;;3.95;100.00;99109.70;1691526;84;21216;-80
2022/10/28 06:05:39;;;;;;;25.00;14.78;;;;;;;3.95;100.00;99116.41;1693241;82;21872;-79
2022/10/28 06:08:05;;;;;;;19.85;12.63;;;;;;;4.02;100.00;99109.70;1690590;82;21092;-80
2022/10/28 06:10:31;;;;;;;22.42;13.03;;;;;;;4.07;100.00;99109.34;1697669;82;20894;-79
2022/10/28 06:12:58;;;;;;;30.00;15.35;;;;;;;4.12;100.00;99106.05;1702838;84;21056;-81
2022/10/28 06:15:24;;;;;;;27.80;13.75;;;;;;;4.16;100.00;99109.42;1709028;82;21105;-80
2022/10/28 06:17:50;;;;;;;23.40;14.83;;;;;;;4.22;100.00;99107.76;1701388;81;20871;-80
2022/10/28 06:20:17;;;;;;;29.37;15.28;;;;;;;4.23;100.00;99106.20;1700689;82;20858;-81
2022/10/28 06:22:53;;;;;;;20.17;14.25;;;;;;;4.30;100.00;99108.86;1722154;81;21093;-79
2022/10/28 06:25:20;;;;;;;18.37;12.82;;;;;;;4.39;100.00;99108.11;1726697;81;21024;-80
2022/10/28 06:27:55;;;;;;;19.25;13.20;;;;;;;4.49;100.00;99101.23;1673009;84;21605;-79
2022/10/28 06:30:22;;;;;;;19.87;12.90;;;;;;;4.58;100.00;99095.62;1714555;81;20986;-79
2022/10/28 06:32:48;;;;;;;26.77;14.50;;;;;;;4.72;100.00;99103.39;1640861;85;21138;-82
2022/10/28 06:35:14;;;;;;;23.75;13.28;;;;;;;4.90;100.00;99102.66;1699051;82;21119;-80
2022/10/28 06:37:40;;;;;;;21.15;13.32;;;;;;;5.12;100.00;99100.42;1691864;82;21037;-80
2022/10/28 06:40:08;;;;;;;31.40;15.35;;;;;;;5.36;100.00;99104.17;1696050;82;21108;-83
2022/10/28 06:42:33;;;;;;;22.77;15.80;;;;;;;5.52;100.00;99109.52;1703542;83;20994;-80
2022/10/28 06:44:59;;;;;;;22.13;13.72;;;;;;;5.69;100.00;99109.78;1698700;84;20894;-82
2022/10/28 06:47:25;;;;;;;21.57;13.10;;;;;;;5.87;100.00;99105.24;1698082;82;21005;-80
2022/10/28 06:49:51;;;;;;;29.75;15.13;;;;;;;6.15;100.00;99106.13;1691445;82;21032;-81
2022/10/28 06:52:17;;;;;;;24.82;15.85;;;;;;;6.49;100.00;99105.17;1693296;82;21163;-82
2022/10/28 06:54:43;;;;;;;21.15;15.50;;;;;;;6.73;100.00;99112.84;1693175;82;20961;-82
2022/10/28 06:57:10;;;;;;;24.32;14.90;;;;;;;6.95;100.00;99111.30;1701320;84;21502;-80
2022/10/28 06:59:36;;;;;;;24.95;14.65;;;;;;;7.08;100.00;99108.39;1670569;84;21002;-82
2022/10/28 07:02:02;;;;;;;22.85;14.90;;;;;;;7.16;100.00;99109.11;1700684;82;20986;-84
2022/10/28 07:04:28;;;;;;;19.45;12.35;;;;;;;7.29;100.00;99099.48;1714913;82;21280;-84
2022/10/28 07:06:55;;;;;;;20.23;13.90;;;;;;;7.44;100.00;99105.78;1702512;82;20898;-84
2022/10/28 07:09:21;;;;;;;33.48;21.52;;;;;;;7.52;100.00;99116.20;1722211;82;21088;-81
2022/10/28 07:11:50;;;;;;;23.98;17.02;;;;;;;7.57;100.00;99112.29;1694896;82;20946;-84
2022/10/28 07:14:15;;;;;;;;;;;;;;;7.64;100.00;99108.95;1663491;85;21046;-84
2022/10/28 07:16:41;;;;;;;29.82;17.52;;;;;;;7.69;100.00;99104.19;1700067;83;21854;-84
2022/10/28 07:19:08;;;;;;;42.73;29.18;;;;;;;7.76;100.00;99104.37;1710375;82;20930;-80
2022/10/28 07:21:34;;;;;;;23.98;13.22;;;;;;;7.81;100.00;99104.50;1703188;82;21092;-80
2022/10/28 07:24:00;;;;;;;22.55;13.60;;;;;;;7.90;100.00;99108.48;1635436;84;21105;-81
2022/10/28 07:26:26;;;;;;;15.98;11.40;;;;;;;8.00;100.00;99106.53;1721774;81;21052;-79
2022/10/28 07:28:53;;;;;;;22.90;15.90;;;;;;;8.10;100.00;99105.92;1717226;82;21199;-81
2022/10/28 07:31:18;;;;;;;22.02;11.88;;;;;;;8.20;100.00;99104.79;1717398;82;21049;-82
2022/10/28 07:33:44;;;;;;;15.95;10.53;;;;;;;8.33;100.00;99107.24;1718263;82;20902;-82
2022/10/28 07:36:10;;;;;;;19.30;13.50;;;;;;;8.43;100.00;99109.36;1681498;83;20909;-82
2022/10/28 07:38:36;;;;;;;17.02;11.90;;;;;;;8.53;100.00;99106.86;1704084;82;21723;-82
2022/10/28 07:41:04;;;;;;;16.97;11.57;;;;;;;8.63;100.00;99110.28;1717008;80;22292;-80
2022/10/28 07:43:30;;;;;;;16.55;11.68;;;;;;;8.72;100.00;99104.28;1711598;83;22328;-80
2022/10/28 07:45:56;;;;;;;20.97;13.03;;;;;;;8.83;100.00;99107.98;1709102;81;20976;-82
2022/10/28 07:48:23;;;;;;;19.10;13.85;;;;;;;8.94;100.00;99104.94;1734108;81;22143;-82
2022/10/28 07:50:48;;;;;;;18.50;12.00;;;;;;;8.98;100.00;99098.00;1731376;80;21053;-83
2022/10/28 07:53:14;;;;;;;19.77;13.58;;;;;;;9.11;100.00;99100.38;1727625;80;21059;-81
2022/10/28 07:55:40;;;;;;;16.35;11.25;;;;;;;9.20;100.00;99100.27;1734063;80;21576;-81
2022/10/28 07:58:06;;;;;;;18.10;12.07;;;;;;;9.28;100.00;99097.69;1723779;80;20929;-80
2022/10/28 08:00:32;;;;;;;18.82;12.53;;;;;;;9.35;100.00;99096.19;1698104;82;20976;-80
2022/10/28 08:02:58;;;;;;;17.37;10.45;;;;;;;9.41;100.00;99097.38;1709995;81;21067;-82
2022/10/28 08:05:24;;;;;;;17.35;10.72;;;;;;;9.47;100.00;99090.15;1667918;85;21224;-81
2022/10/28 08:07:50;;;;;;;16.27;10.72;;;;;;;9.56;100.00;99096.25;1704658;82;20922;-82
2022/10/28 08:10:16;;;;;;;19.65;12.90;;;;;;;9.64;100.00;99089.60;1704255;82;20925;-81
2022/10/28 08:12:41;;;;;;;17.32;11.10;;;;;;;9.74;100.00;99088.43;1680562;84;20898;-82
2022/10/28 08:15:09;;;;;;;17.02;11.10;;;;;;;9.82;100.00;99096.09;1691475;82;20997;-81
2022/10/28 08:17:35;;;;;;;21.00;11.40;;;;;;;9.92;100.00;99087.33;1688552;82;21087;-81
2022/10/28 08:20:01;;;;;;;18.10;10.58;;;;;;;9.99;100.00;99088.48;1688972;82;20899;-81
2022/10/28 08:22:27;;;;;;;14.68;9.48;;;;;;;10.07;100.00;99087.52;1717718;82;21632;-81
2022/10/28 08:24:53;;;;;;;17.50;10.48;;;;;;;10.17;100.00;99078.73;1726962;82;20914;-82
2022/10/28 08:27:18;;;;;;;14.95;9.10;;;;;;;10.28;100.00;99082.41;1718905;82;21569;-82
2022/10/28 08:29:44;;;;;;;15.38;11.40;;;;;;;10.39;100.00;99076.04;1711234;82;21149;-82
2022/10/28 08:32:10;;;;;;;15.70;10.32;;;;;;;10.51;100.00;99074.54;1699242;82;21176;-82
2022/10/28 08:34:36;;;;;;;15.00;10.23;;;;;;;10.64;100.00;99071.45;1699304;82;21132;-82
2022/10/28 08:37:02;;;;;;;19.37;11.80;;;;;;;10.73;100.00;99062.60;1706616;82;21041;-82
2022/10/28 08:39:28;;;;;;;17.80;11.80;;;;;;;10.86;100.00;99069.53;1705000;82;20918;-81
2022/10/28 08:42:42;;;;;;;20.92;11.70;;;;;;;10.98;100.00;99059.33;1704044;83;21134;-81
2022/10/28 08:45:20;;;;;;;15.23;10.25;;;;;;;11.14;100.00;99056.22;1706726;82;21061;-83
2022/10/28 08:48:30;;;;;;;41.63;29.63;;;;;;;11.36;100.00;99050.69;1714970;82;21076;-83
2022/10/28 08:51:02;;;;;;;23.52;13.88;;;;;;;11.57;100.00;99052.48;1700278;82;21120;-81
2022/10/28 08:53:33;;;;;;;22.45;15.10;;;;;;;11.82;100.00;99046.44;1707807;82;21560;-80
2022/10/28 08:56:13;;;;;;;29.75;18.27;;;;;;;12.02;100.00;99047.63;1707038;81;21070;-80
2022/10/28 08:58:39;;;;;;;24.20;13.15;;;;;;;12.23;100.00;99046.65;1704951;82;21006;-81
2022/10/28 09:01:05;;;;;;;38.92;20.52;;;;;;;12.43;100.00;99056.77;1704237;82;20895;-80
2022/10/28 09:03:39;;;;;;;16.87;10.10;;;;;;;12.64;100.00;99044.05;1704895;82;21290;-81
2022/10/28 09:06:06;;;;;;;15.93;8.53;;;;;;;12.90;100.00;99044.40;1693835;82;21030;-80
2022/10/28 09:08:36;;;;;;;14.93;8.28;;;;;;;13.24;100.00;99034.36;1702058;82;21235;-80
2022/10/28 09:11:25;;;;;;;13.93;7.65;;;;;;;13.49;100.00;99037.06;1693656;83;21149;-81
2022/10/28 09:14:20;;;;;;;19.85;9.33;;;;;;;13.75;100.00;99033.76;1694116;83;21018;-82
2022/10/28 09:17:21;;;;;;;30.60;19.77;;;;;;;13.96;100.00;99032.36;1717682;82;21037;-80
2022/10/28 09:19:54;;;;;;;15.15;9.05;;;;;;;14.20;100.00;99028.47;1705051;82;21048;-80
2022/10/28 09:22:46;;;;;;;22.82;8.15;;;;;;;14.43;100.00;99027.80;1687568;82;21054;-79
2022/10/28 09:25:52;;;;;;;10.80;6.30;;;;;;;14.77;100.00;99025.73;1706844;83;21073;-81
2022/10/28 09:29:05;;;;;;;13.50;8.15;;;;;;;14.93;100.00;99026.72;1728418;81;21222;-81
2022/10/28 09:31:41;;;;;;;9.08;4.85;;;;;;;15.24;100.00;99019.67;1698056;83;21057;-80
2022/10/28 09:34:25;;;;;;;9.33;5.55;;;;;;;15.49;100.00;99012.62;1670242;84;21019;-81
2022/10/28 09:37:19;;;;;;;12.95;5.90;;;;;;;15.63;100.00;99010.03;1702517;81;21140;-82
2022/10/28 09:39:49;;;;;;;13.72;5.15;;;;;;;15.72;100.00;99004.76;1701928;82;21081;-81
2022/10/28 09:42:23;;;;;;;40.52;20.68;;;;;;;15.86;100.00;99003.53;1706739;82;21030;-80
2022/10/28 09:44:56;;;;;;;8.60;5.12;;;;;;;15.97;100.00;99005.84;1712099;82;21037;-81
2022/10/28 09:47:26;;;;;;;9.83;6.45;;;;;;;16.07;100.00;99003.02;1720420;82;21219;-80
2022/10/28 09:49:55;;;;;;;12.20;7.50;;;;;;;16.27;100.00;99010.70;1708705;82;21218;-79
2022/10/28 09:52:37;;;;;;;9.00;5.47;;;;;;;16.33;100.00;99004.07;1726981;82;21200;-79
2022/10/28 09:55:08;;;;;;;10.93;6.12;;;;;;;16.36;100.00;99008.38;1664191;84;21017;-82
2022/10/28 09:57:33;;;;;;;7.42;3.60;;;;;;;16.48;100.00;99016.16;1681978;84;21021;-82
2022/10/28 09:59:59;;;;;;;7.72;4.33;;;;;;;16.52;100.00;99007.63;1719164;82;20902;-81
2022/10/28 10:02:31;;;;;;;9.70;5.12;;;;;;;16.57;100.00;99008.91;1720007;82;21225;-82
2022/10/28 10:04:58;;;;;;;10.68;4.95;;;;;;;16.70;100.00;99014.80;1703429;82;21010;-82
2022/10/28 10:07:51;;;;;;;9.53;4.90;;;;;;;16.77;100.00;99001.02;1720109;82;21550;-82
2022/10/28 10:10:46;;;;;;;7.53;3.92;;;;;;;16.82;100.00;98999.55;1724002;82;21454;-81
2022/10/28 10:13:12;;;;;;;10.80;3.77;;;;;;;16.92;100.00;98995.87;1719884;82;21009;-82
2022/10/28 10:15:44;;;;;;;7.55;3.65;;;;;;;17.11;100.00;98993.91;1706464;82;21129;-82
2022/10/28 10:18:14;;;;;;;10.00;5.50;;;;;;;17.30;100.00;98984.28;1721930;82;21675;-81
2022/10/28 10:20:50;;;;;;;7.45;3.58;;;;;;;17.54;100.00;98988.25;1709250;82;21069;-82
2022/10/28 10:23:32;;;;;;;5.22;3.55;;;;;;;17.71;100.00;98992.62;1696573;82;21038;-82
2022/10/28 10:26:13;;;;;;;9.85;3.15;;;;;;;17.87;97.45;98984.92;1706606;82;21132;-80
2022/10/28 10:28:45;;;;;;;7.25;2.85;;;;;;;18.11;97.21;98995.66;1722045;82;21300;-81
2022/10/28 10:31:24;;;;;;;5.00;3.12;;;;;;;18.29;95.18;98993.95;1715988;82;21026;-81
2022/10/28 10:33:53;;;;;;;7.30;3.30;;;;;;;18.35;95.19;98991.89;1701521;84;24998;-80
2022/10/28 10:36:22;;;;;;;6.10;3.17;;;;;;;18.44;94.52;98988.67;1687161;82;21065;-81
2022/10/28 10:38:56;;;;;;;8.75;3.20;;;;;;;18.46;94.53;98986.45;1717896;82;21100;-81
2022/10/28 10:41:39;;;;;;;7.00;3.05;;;;;;;18.57;91.16;98991.96;1699303;82;21154;-81
2022/10/28 10:44:24;;;;;;;5.33;2.20;;;;;;;18.71;91.04;98984.52;1712385;82;21446;-81
2022/10/28 10:47:05;;;;;;;4.05;2.60;;;;;;;18.82;89.13;98981.80;1672924;84;21064;-81
2022/10/28 10:49:31;;;;;;;6.62;2.62;;;;;;;18.90;89.22;98972.02;1708998;82;21015;-82
2022/10/28 10:52:00;;;;;;;6.17;2.50;;;;;;;18.94;90.25;98973.00;1705874;82;20886;-80
2022/10/28 10:54:29;;;;;;;5.60;2.20;;;;;;;19.01;88.84;98972.58;1714623;82;21180;-81
2022/10/28 10:57:09;;;;;;;;;;;;;;;19.08;87.53;98985.31;1709172;82;21103;-81
2022/10/28 10:59:36;;;;;;;9.25;3.02;;;;;;;19.20;82.89;98987.48;1687279;84;20524;-79
2022/10/28 11:02:02;;;;;;;9.08;2.22;;;;;;;19.23;85.75;98977.23;1704429;84;21021;-81
2022/10/28 11:04:29;;;;;;;6.40;2.52;;;;;;;19.31;81.63;98978.69;1687300;84;21031;-80
2022/10/28 11:06:56;;;;;;;6.40;3.05;;;;;;;19.37;80.22;98969.73;1650763;84;21301;-79
2022/10/28 11:09:37;;;;;;;6.22;2.83;;;;;;;19.43;79.54;98962.42;1642374;86;21024;-80
2022/10/28 11:12:25;;;;;;;3.62;1.70;;;;;;;19.52;78.96;98961.66;1707394;82;21018;-82
2022/10/28 11:14:59;;;;;;;6.13;2.83;;;;;;;19.58;80.59;98963.19;1674377;82;21256;-82
2022/10/28 11:17:28;;;;;;;6.08;3.15;;;;;;;19.64;81.09;98959.15;1694677;82;21085;-82
2022/10/28 11:19:56;;;;;;;3.05;1.80;;;;;;;19.69;81.16;98957.65;1703064;82;21146;-82
2022/10/28 11:22:42;;;;;;;4.80;2.20;;;;;;;19.71;79.78;98958.95;1711926;82;21592;-82
2022/10/28 11:25:34;;;;;;;3.27;1.80;;;;;;;19.79;78.43;98957.36;1701142;84;21108;-82
2022/10/28 11:28:26;;;;;;;4.15;1.87;;;;;;;19.83;77.37;98959.74;1703649;82;21060;-82
2022/10/28 11:31:21;;;;;;;4.90;1.95;;;;;;;19.93;73.84;98954.52;1706015;82;21080;-82
2022/10/28 11:34:22;;;;;;;6.53;1.65;;;;;;;19.96;75.07;98951.11;1702395;82;21665;-82
2022/10/28 11:37:08;;;;;;;4.70;1.92;;;;;;;19.98;75.47;98951.03;1698846;84;21089;-82
2022/10/28 11:39:52;;;;;;;4.58;2.17;;;;;;;19.98;75.20;98957.10;1692421;84;21022;-82